Aleppo, Pennsylvania
Current Conditions -  °F | °C
As of 8:15 AM on Thursday 27 Nov 2014 (Local Time) from KAFJ Reporting Station
Overcast Overcast  
Wind Chill:   Ceiling: 4700
Heat Index:   Visibility: 9mi
Dew Point: -3°   Wind: 3mph
Humidity: 80%   Direction: 280°W
Pressure: 30.06"   Gusts: NA
Location:  39.82°N, 80.45°W
Report Text: KAFJ 271315Z 28003KT 9SM OVC047 00/M03 A3006 RMK AO1
Loading
Personal Weather Stations






























Interactive Weather Map New forecast layout! Learn more

10-Day Weather Forecast

Advertisements
Track Severe Weather on mobile